createdAt,value
2019-02-24T00:01:00.513Z,1026.70
2019-02-24T00:02:06.018Z,1026.73
2019-02-24T00:03:11.530Z,1026.76
2019-02-24T00:04:17.034Z,1026.78
2019-02-24T00:05:22.545Z,1026.75
2019-02-24T00:06:28.066Z,1026.73
2019-02-24T00:07:33.555Z,1026.76
2019-02-24T00:08:39.064Z,1026.73
2019-02-24T00:09:44.571Z,1026.73
2019-02-24T00:10:50.071Z,1026.70
2019-02-24T00:11:55.587Z,1026.72
2019-02-24T00:13:01.090Z,1026.70
2019-02-24T00:14:06.600Z,1026.68
2019-02-24T00:15:12.109Z,1026.64
2019-02-24T00:16:17.625Z,1026.65
2019-02-24T00:17:23.123Z,1026.66
2019-02-24T00:18:28.640Z,1026.64
2019-02-24T00:19:34.141Z,1026.69
2019-02-24T00:20:39.655Z,1026.72
2019-02-24T00:21:45.153Z,1026.74
2019-02-24T00:22:50.661Z,1026.72
2019-02-24T00:23:56.172Z,1026.73
2019-02-24T00:25:01.677Z,1026.75
2019-02-24T00:26:07.179Z,1026.79
2019-02-24T00:27:12.692Z,1026.74
2019-02-24T00:28:18.203Z,1026.78
2019-02-24T00:29:23.705Z,1026.78
2019-02-24T00:30:29.210Z,1026.82
2019-02-24T00:31:34.726Z,1026.82
2019-02-24T00:32:40.237Z,1026.79
2019-02-24T00:33:45.751Z,1026.82
2019-02-24T00:34:51.247Z,1026.82
2019-02-24T00:35:56.750Z,1026.81
2019-02-24T00:37:02.258Z,1026.85
2019-02-24T00:38:07.771Z,1026.82
2019-02-24T00:39:13.281Z,1026.85
2019-02-24T00:40:18.789Z,1026.85
2019-02-24T00:41:24.296Z,1026.89
2019-02-24T00:42:30.037Z,1026.86
2019-02-24T00:43:35.298Z,1026.90
2019-02-24T00:44:40.815Z,1026.92
2019-02-24T00:45:46.316Z,1026.90
2019-02-24T00:46:51.828Z,1026.92
2019-02-24T00:47:57.327Z,1026.86
2019-02-24T00:49:02.851Z,1026.92
2019-02-24T00:50:08.349Z,1026.88
2019-02-24T00:51:13.841Z,1026.81
2019-02-24T00:52:19.359Z,1026.82
2019-02-24T00:53:24.874Z,1026.85
2019-02-24T00:54:30.391Z,1026.82
2019-02-24T00:55:35.890Z,1026.82
2019-02-24T00:56:41.385Z,1026.81
2019-02-24T00:57:46.893Z,1026.80
2019-02-24T00:58:52.398Z,1026.81
2019-02-24T00:59:57.914Z,1026.77
2019-02-24T01:01:03.411Z,1026.76
2019-02-24T01:02:08.919Z,1026.78
2019-02-24T01:03:14.420Z,1026.77
2019-02-24T01:04:19.933Z,1026.76
2019-02-24T01:05:25.440Z,1026.76
2019-02-24T01:06:30.945Z,1026.78
2019-02-24T01:07:36.453Z,1026.78
2019-02-24T01:08:41.974Z,1026.79
2019-02-24T01:09:47.466Z,1026.80
2019-02-24T01:10:52.969Z,1026.77
2019-02-24T01:11:58.474Z,1026.81
2019-02-24T01:13:03.985Z,1026.76
2019-02-24T01:14:09.484Z,1026.80
2019-02-24T01:15:15.003Z,1026.77
2019-02-24T01:16:20.504Z,1026.74
2019-02-24T01:17:26.008Z,1026.77
2019-02-24T01:18:31.518Z,1026.77
2019-02-24T01:19:37.024Z,1026.79
2019-02-24T01:20:42.536Z,1026.79
2019-02-24T01:21:48.035Z,1026.75
2019-02-24T01:22:53.542Z,1026.79
2019-02-24T01:23:59.050Z,1026.76
2019-02-24T01:25:04.562Z,1026.71
2019-02-24T01:26:10.069Z,1026.74
2019-02-24T01:27:15.569Z,1026.73
2019-02-24T01:28:25.215Z,1026.73
2019-02-24T01:29:26.580Z,1026.73
2019-02-24T01:30:32.087Z,1026.72
2019-02-24T01:31:37.597Z,1026.76
2019-02-24T01:32:43.101Z,1026.77
2019-02-24T01:33:48.607Z,1026.73
2019-02-24T01:34:54.114Z,1026.73
2019-02-24T01:35:59.619Z,1026.75
2019-02-24T01:37:05.126Z,1026.75
2019-02-24T01:38:10.631Z,1026.76
2019-02-24T01:39:16.140Z,1026.77
2019-02-24T01:40:21.646Z,1026.79
2019-02-24T01:41:27.174Z,1026.79
2019-02-24T01:42:32.672Z,1026.79
2019-02-24T01:43:38.169Z,1026.78
2019-02-24T01:44:43.673Z,1026.81
2019-02-24T01:45:49.178Z,1026.76
2019-02-24T01:46:54.684Z,1026.78
2019-02-24T01:48:00.197Z,1026.77
2019-02-24T01:49:05.698Z,1026.75
2019-02-24T01:50:11.206Z,1026.76
2019-02-24T01:51:16.710Z,1026.71
2019-02-24T01:52:22.217Z,1026.74
2019-02-24T01:53:27.729Z,1026.69
2019-02-24T01:54:33.226Z,1026.69
2019-02-24T01:55:38.735Z,1026.69
2019-02-24T01:56:44.241Z,1026.63
2019-02-24T01:57:49.752Z,1026.63
2019-02-24T01:58:55.256Z,1026.62
2019-02-24T02:00:00.762Z,1026.61
2019-02-24T02:01:06.267Z,1026.64
2019-02-24T02:02:11.773Z,1026.62
2019-02-24T02:03:17.277Z,1026.60
2019-02-24T02:04:22.785Z,1026.59
2019-02-24T02:05:28.291Z,1026.57
2019-02-24T02:06:33.806Z,1026.53
2019-02-24T02:07:39.306Z,1026.55
2019-02-24T02:08:44.820Z,1026.54
2019-02-24T02:09:50.317Z,1026.55
2019-02-24T02:10:55.824Z,1026.56
2019-02-24T02:12:01.330Z,1026.48
2019-02-24T02:13:06.837Z,1026.51
2019-02-24T02:14:12.344Z,1026.52
2019-02-24T02:15:17.852Z,1026.51
2019-02-24T02:16:24.273Z,1026.49
2019-02-24T02:17:28.859Z,1026.48
2019-02-24T02:18:34.366Z,1026.49
2019-02-24T02:19:39.919Z,1026.48
2019-02-24T02:20:45.373Z,1026.47
2019-02-24T02:21:50.889Z,1026.51
2019-02-24T02:22:56.397Z,1026.51
2019-02-24T02:24:01.900Z,1026.49
2019-02-24T02:25:07.405Z,1026.49
2019-02-24T02:26:12.910Z,1026.54
2019-02-24T02:27:18.420Z,1026.49
2019-02-24T02:28:23.925Z,1026.48
2019-02-24T02:29:29.428Z,1026.49
2019-02-24T02:30:34.944Z,1026.50
2019-02-24T02:31:40.439Z,1026.48
2019-02-24T02:32:45.963Z,1026.52
2019-02-24T02:33:51.452Z,1026.50
2019-02-24T02:34:56.970Z,1026.51
2019-02-24T02:36:02.468Z,1026.51
2019-02-24T02:37:07.972Z,1026.52
2019-02-24T02:38:13.476Z,1026.48
2019-02-24T02:39:18.985Z,1026.49
2019-02-24T02:40:24.498Z,1026.47
2019-02-24T02:41:29.994Z,1026.47
2019-02-24T02:42:35.501Z,1026.47
2019-02-24T02:43:41.005Z,1026.45
2019-02-24T02:44:46.529Z,1026.44
2019-02-24T02:45:52.023Z,1026.44
2019-02-24T02:46:57.525Z,1026.41
2019-02-24T02:48:03.070Z,1026.44
2019-02-24T02:49:08.537Z,1026.41
2019-02-24T02:50:14.090Z,1026.38
2019-02-24T02:51:19.547Z,1026.38
2019-02-24T02:52:25.062Z,1026.41
2019-02-24T02:53:30.566Z,1026.41
2019-02-24T02:54:36.067Z,1026.37
2019-02-24T02:55:41.573Z,1026.35
2019-02-24T02:56:47.072Z,1026.35
2019-02-24T02:57:52.594Z,1026.35
2019-02-24T02:58:58.088Z,1026.35
2019-02-24T03:00:03.597Z,1026.31
2019-02-24T03:01:09.103Z,1026.33
2019-02-24T03:02:23.833Z,1026.37
2019-02-24T03:03:20.111Z,1026.34
2019-02-24T03:04:25.629Z,1026.31
2019-02-24T03:05:31.121Z,1026.33
2019-02-24T03:06:36.636Z,1026.33
2019-02-24T03:07:42.148Z,1026.35
2019-02-24T03:08:47.643Z,1026.37
2019-02-24T03:09:53.149Z,1026.37
2019-02-24T03:10:58.648Z,1026.41
2019-02-24T03:12:04.173Z,1026.40
2019-02-24T03:13:09.669Z,1026.38
2019-02-24T03:14:15.172Z,1026.42
2019-02-24T03:15:20.671Z,1026.39
2019-02-24T03:16:26.177Z,1026.39
2019-02-24T03:17:31.702Z,1026.40
2019-02-24T03:18:37.189Z,1026.41
2019-02-24T03:19:42.706Z,1026.37
2019-02-24T03:20:48.203Z,1026.34
2019-02-24T03:21:53.705Z,1026.40
2019-02-24T03:22:59.210Z,1026.41
2019-02-24T03:24:04.716Z,1026.41
2019-02-24T03:25:10.230Z,1026.43
2019-02-24T03:26:15.731Z,1026.40
2019-02-24T03:27:21.235Z,1026.41
2019-02-24T03:28:26.737Z,1026.46
2019-02-24T03:29:32.246Z,1026.43
2019-02-24T03:30:37.749Z,1026.48
2019-02-24T03:31:43.322Z,1026.50
2019-02-24T03:32:48.761Z,1026.53
2019-02-24T03:33:54.267Z,1026.56
2019-02-24T03:34:59.768Z,1026.55
2019-02-24T03:36:05.277Z,1026.55
2019-02-24T03:37:10.784Z,1026.58
2019-02-24T03:38:16.310Z,1026.53
2019-02-24T03:39:21.798Z,1026.56
2019-02-24T03:40:27.306Z,1026.55
2019-02-24T03:41:32.803Z,1026.61
2019-02-24T03:42:38.310Z,1026.61
2019-02-24T03:43:43.816Z,1026.65
2019-02-24T03:44:49.322Z,1026.70
2019-02-24T03:45:54.824Z,1026.66
2019-02-24T03:47:00.338Z,1026.69
2019-02-24T03:48:05.838Z,1026.69
2019-02-24T03:49:11.350Z,1026.71
2019-02-24T03:50:16.847Z,1026.70
2019-02-24T03:51:22.342Z,1026.70
2019-02-24T03:52:27.858Z,1026.71
2019-02-24T03:53:33.371Z,1026.70
2019-02-24T03:54:38.867Z,1026.69
2019-02-24T03:55:44.386Z,1026.73
2019-02-24T03:56:49.877Z,1026.72
2019-02-24T03:57:55.385Z,1026.71
2019-02-24T03:59:00.894Z,1026.73
2019-02-24T04:00:06.391Z,1026.72
2019-02-24T04:01:11.904Z,1026.70
2019-02-24T04:02:17.404Z,1026.70
2019-02-24T04:03:22.918Z,1026.69
2019-02-24T04:04:28.419Z,1026.71
2019-02-24T04:05:33.922Z,1026.68
2019-02-24T04:06:40.760Z,1026.68
2019-02-24T04:07:44.937Z,1026.67
2019-02-24T04:08:50.434Z,1026.64
2019-02-24T04:09:55.941Z,1026.64
2019-02-24T04:11:01.450Z,1026.65
2019-02-24T04:12:06.960Z,1026.67
2019-02-24T04:13:12.456Z,1026.64
2019-02-24T04:14:17.958Z,1026.63
2019-02-24T04:15:23.471Z,1026.63
2019-02-24T04:16:28.974Z,1026.64
2019-02-24T04:17:34.480Z,1026.63
2019-02-24T04:18:39.980Z,1026.64
2019-02-24T04:19:45.525Z,1026.70
2019-02-24T04:20:50.992Z,1026.69
2019-02-24T04:21:56.488Z,1026.70
2019-02-24T04:23:01.999Z,1026.73
2019-02-24T04:24:07.508Z,1026.73
2019-02-24T04:25:13.019Z,1026.77
2019-02-24T04:26:18.520Z,1026.74
2019-02-24T04:27:24.021Z,1026.75
2019-02-24T04:28:29.525Z,1026.74
2019-02-24T04:29:35.029Z,1026.75
2019-02-24T04:30:40.540Z,1026.80
2019-02-24T04:31:46.040Z,1026.79
2019-02-24T04:32:51.549Z,1026.79
2019-02-24T04:33:57.059Z,1026.77
2019-02-24T04:35:02.558Z,1026.83
2019-02-24T04:36:08.061Z,1026.83
2019-02-24T04:37:13.569Z,1026.89
2019-02-24T04:38:19.073Z,1026.85
2019-02-24T04:39:24.578Z,1026.88
2019-02-24T04:40:30.083Z,1026.90
2019-02-24T04:41:35.589Z,1026.89
2019-02-24T04:42:41.090Z,1026.90
2019-02-24T04:43:46.592Z,1026.88
2019-02-24T04:44:52.103Z,1026.89
2019-02-24T04:45:57.611Z,1026.89
2019-02-24T04:47:03.111Z,1026.95
2019-02-24T04:48:08.614Z,1026.94
2019-02-24T04:49:14.124Z,1026.91
2019-02-24T04:50:19.626Z,1026.90
2019-02-24T04:51:25.142Z,1026.95
2019-02-24T04:52:30.639Z,1026.92
2019-02-24T04:53:36.139Z,1026.91
2019-02-24T04:54:41.646Z,1026.92
2019-02-24T04:55:47.149Z,1026.87
2019-02-24T04:56:52.657Z,1026.83
2019-02-24T04:57:58.162Z,1026.83
2019-02-24T04:59:03.685Z,1026.83
2019-02-24T05:00:09.166Z,1026.83
2019-02-24T05:01:14.677Z,1026.85
2019-02-24T05:02:20.185Z,1026.84
2019-02-24T05:03:25.685Z,1026.87
2019-02-24T05:04:31.189Z,1026.91
2019-02-24T05:05:36.693Z,1026.94
2019-02-24T05:06:42.198Z,1026.94
2019-02-24T05:07:47.703Z,1026.96
2019-02-24T05:08:53.208Z,1026.91
2019-02-24T05:09:58.713Z,1026.90
2019-02-24T05:11:04.234Z,1026.85
2019-02-24T05:12:09.724Z,1026.83
2019-02-24T05:13:15.233Z,1026.82
2019-02-24T05:14:20.733Z,1026.84
2019-02-24T05:15:26.253Z,1026.83
2019-02-24T05:16:31.739Z,1026.77
2019-02-24T05:17:38.697Z,1026.80
2019-02-24T05:18:42.773Z,1026.81
2019-02-24T05:19:48.257Z,1026.78
2019-02-24T05:20:53.761Z,1026.77
2019-02-24T05:21:59.269Z,1026.77
2019-02-24T05:23:04.771Z,1026.76
2019-02-24T05:24:10.276Z,1026.74
2019-02-24T05:25:15.776Z,1026.71
2019-02-24T05:26:21.289Z,1026.71
2019-02-24T05:27:26.793Z,1026.79
2019-02-24T05:28:32.300Z,1026.78
2019-02-24T05:29:45.222Z,1026.79
2019-02-24T05:30:43.301Z,1026.78
2019-02-24T05:31:48.810Z,1026.80
2019-02-24T05:32:54.316Z,1026.75
2019-02-24T05:33:59.819Z,1026.81
2019-02-24T05:35:05.325Z,1026.86
2019-02-24T05:36:10.830Z,1026.85
2019-02-24T05:37:16.332Z,1026.86
2019-02-24T05:38:21.836Z,1026.90
2019-02-24T05:39:27.347Z,1026.86
2019-02-24T05:40:32.847Z,1026.85
2019-02-24T05:41:38.353Z,1026.88
2019-02-24T05:42:43.858Z,1026.93
2019-02-24T05:43:49.366Z,1026.90
2019-02-24T05:44:54.872Z,1026.85
2019-02-24T05:46:00.373Z,1026.88
2019-02-24T05:47:05.875Z,1026.84
2019-02-24T05:48:11.385Z,1026.86
2019-02-24T05:49:16.886Z,1026.86
2019-02-24T05:50:22.386Z,1026.86
2019-02-24T05:51:27.898Z,1026.90
2019-02-24T05:52:33.396Z,1026.91
2019-02-24T05:53:39.005Z,1026.89
2019-02-24T05:54:44.408Z,1026.90
2019-02-24T05:55:49.904Z,1026.93
2019-02-24T05:56:55.422Z,1026.89
2019-02-24T05:58:00.921Z,1026.93
2019-02-24T05:59:06.433Z,1026.90
2019-02-24T06:00:11.936Z,1026.88
2019-02-24T06:01:17.435Z,1026.89
2019-02-24T06:02:22.943Z,1026.89
2019-02-24T06:03:28.448Z,1026.89
2019-02-24T06:04:33.951Z,1026.87
2019-02-24T06:05:39.449Z,1026.83
2019-02-24T06:06:44.963Z,1026.88
2019-02-24T06:07:50.466Z,1026.86
2019-02-24T06:08:55.966Z,1026.87
2019-02-24T06:10:01.497Z,1026.81
2019-02-24T06:11:06.977Z,1026.82
2019-02-24T06:12:12.475Z,1026.76
2019-02-24T06:13:17.988Z,1026.77
2019-02-24T06:14:23.498Z,1026.70
2019-02-24T06:15:28.996Z,1026.70
2019-02-24T06:16:34.500Z,1026.72
2019-02-24T06:17:40.013Z,1026.72
2019-02-24T06:18:45.515Z,1026.71
2019-02-24T06:19:51.017Z,1026.77
2019-02-24T06:20:56.517Z,1026.75
2019-02-24T06:22:02.024Z,1026.78
2019-02-24T06:23:07.528Z,1026.75
2019-02-24T06:24:13.029Z,1026.73
2019-02-24T06:25:18.534Z,1026.76
2019-02-24T06:26:24.043Z,1026.75
2019-02-24T06:27:29.543Z,1026.79
2019-02-24T06:28:35.066Z,1026.79
2019-02-24T06:29:40.553Z,1026.78
2019-02-24T06:30:46.057Z,1026.81
2019-02-24T06:31:51.567Z,1026.81
2019-02-24T06:32:57.083Z,1026.75
2019-02-24T06:34:02.570Z,1026.75
2019-02-24T06:35:08.084Z,1026.73
2019-02-24T06:36:13.579Z,1026.73
2019-02-24T06:37:19.087Z,1026.72
2019-02-24T06:38:24.586Z,1026.74
2019-02-24T06:39:30.098Z,1026.80
2019-02-24T06:40:35.599Z,1026.76
2019-02-24T06:41:41.108Z,1026.82
2019-02-24T06:42:46.621Z,1026.84
2019-02-24T06:43:52.111Z,1026.84
2019-02-24T06:44:57.612Z,1026.86
2019-02-24T06:46:03.145Z,1026.90
2019-02-24T06:47:08.625Z,1026.85
2019-02-24T06:48:14.133Z,1026.90
2019-02-24T06:49:19.652Z,1026.89
2019-02-24T06:50:34.703Z,1026.89
2019-02-24T06:51:30.647Z,1026.86
2019-02-24T06:52:36.148Z,1026.85
2019-02-24T06:53:41.652Z,1026.82
2019-02-24T06:54:47.160Z,1026.83
2019-02-24T06:55:52.673Z,1026.87
2019-02-24T06:56:58.163Z,1026.84
2019-02-24T06:58:03.672Z,1026.86
2019-02-24T06:59:09.173Z,1026.87
2019-02-24T07:00:14.684Z,1026.84
2019-02-24T07:01:20.204Z,1026.86
2019-02-24T07:02:25.691Z,1026.86
2019-02-24T07:03:31.207Z,1026.90
2019-02-24T07:04:36.699Z,1026.88
2019-02-24T07:05:42.204Z,1026.90
2019-02-24T07:06:47.706Z,1026.92
2019-02-24T07:07:53.248Z,1026.96
2019-02-24T07:08:58.718Z,1026.94
2019-02-24T07:10:04.220Z,1026.96
2019-02-24T07:11:09.726Z,1026.96
2019-02-24T07:12:15.229Z,1026.97
2019-02-24T07:13:20.748Z,1027.00
2019-02-24T07:14:26.252Z,1026.97
2019-02-24T07:15:31.743Z,1027.03
2019-02-24T07:16:37.258Z,1027.02
2019-02-24T07:17:42.766Z,1027.03
2019-02-24T07:18:48.258Z,1027.01
2019-02-24T07:19:53.765Z,1026.96
2019-02-24T07:20:59.277Z,1026.95
2019-02-24T07:22:04.774Z,1026.93
2019-02-24T07:23:10.277Z,1026.92
2019-02-24T07:24:15.785Z,1026.93
2019-02-24T07:25:21.289Z,1026.89
2019-02-24T07:26:26.791Z,1026.87
2019-02-24T07:27:32.299Z,1026.88
2019-02-24T07:28:37.805Z,1026.89
2019-02-24T07:29:43.307Z,1026.88
2019-02-24T07:30:48.811Z,1026.83
2019-02-24T07:31:54.317Z,1026.79
2019-02-24T07:32:59.830Z,1026.79
2019-02-24T07:34:05.331Z,1026.76
2019-02-24T07:35:10.833Z,1026.76
2019-02-24T07:36:16.353Z,1026.75
2019-02-24T07:37:21.831Z,1026.77
2019-02-24T07:38:27.349Z,1026.78
2019-02-24T07:39:32.842Z,1026.79
2019-02-24T07:40:38.354Z,1026.79
2019-02-24T07:41:43.868Z,1026.79
2019-02-24T07:42:49.367Z,1026.88
2019-02-24T07:43:54.880Z,1026.79
2019-02-24T07:45:00.370Z,1026.86
2019-02-24T07:46:05.895Z,1026.84
2019-02-24T07:47:11.388Z,1026.88
2019-02-24T07:48:16.934Z,1026.89
2019-02-24T07:49:22.396Z,1026.86
2019-02-24T07:50:27.908Z,1026.87
2019-02-24T07:51:33.408Z,1026.88
2019-02-24T07:52:38.901Z,1026.84
2019-02-24T07:53:44.424Z,1026.87
2019-02-24T07:54:49.928Z,1026.87
2019-02-24T07:55:55.428Z,1026.92
2019-02-24T07:57:00.932Z,1026.94
2019-02-24T07:58:06.442Z,1027.00
2019-02-24T07:59:11.945Z,1026.99
2019-02-24T08:00:17.447Z,1027.00
2019-02-24T08:01:22.953Z,1027.01
2019-02-24T08:02:28.467Z,1027.06
2019-02-24T08:03:33.965Z,1027.05
2019-02-24T08:04:39.492Z,1027.04
2019-02-24T08:05:44.978Z,1027.10
2019-02-24T08:06:50.486Z,1027.11
2019-02-24T08:07:55.987Z,1027.14
2019-02-24T08:09:01.494Z,1027.19
2019-02-24T08:10:07.001Z,1027.22
2019-02-24T08:11:12.505Z,1027.24
2019-02-24T08:12:18.009Z,1027.25
2019-02-24T08:13:23.520Z,1027.26
2019-02-24T08:14:29.026Z,1027.30
2019-02-24T08:15:34.530Z,1027.26
2019-02-24T08:16:40.033Z,1027.29
2019-02-24T08:17:45.543Z,1027.30
2019-02-24T08:18:52.060Z,1027.33
2019-02-24T08:19:56.555Z,1027.31
2019-02-24T08:21:02.118Z,1027.32
2019-02-24T08:22:07.571Z,1027.31
2019-02-24T08:23:13.083Z,1027.26
2019-02-24T08:24:18.583Z,1027.31
2019-02-24T08:25:24.087Z,1027.31
2019-02-24T08:26:29.616Z,1027.36
2019-02-24T08:27:35.102Z,1027.39
2019-02-24T08:28:40.612Z,1027.41
2019-02-24T08:29:46.111Z,1027.40
2019-02-24T08:30:51.621Z,1027.42
2019-02-24T08:31:57.125Z,1027.47
2019-02-24T08:33:02.630Z,1027.49
2019-02-24T08:34:08.139Z,1027.48
2019-02-24T08:35:13.648Z,1027.45
2019-02-24T08:36:19.152Z,1027.47
2019-02-24T08:37:24.656Z,1027.51
2019-02-24T08:38:30.163Z,1027.53
2019-02-24T08:39:35.676Z,1027.50
2019-02-24T08:40:41.184Z,1027.51
2019-02-24T08:41:46.700Z,1027.58
2019-02-24T08:42:52.196Z,1027.61
2019-02-24T08:43:57.700Z,1027.55
2019-02-24T08:45:03.222Z,1027.59
2019-02-24T08:46:08.720Z,1027.63
2019-02-24T08:47:14.233Z,1027.71
2019-02-24T08:48:19.731Z,1027.71
2019-02-24T08:49:25.238Z,1027.72
2019-02-24T08:50:30.747Z,1027.77
2019-02-24T08:51:36.254Z,1027.79
2019-02-24T08:52:41.765Z,1027.81
2019-02-24T08:53:47.270Z,1027.73
2019-02-24T08:54:52.785Z,1027.76
2019-02-24T08:55:58.284Z,1027.76
2019-02-24T08:57:03.799Z,1027.80
2019-02-24T08:58:09.297Z,1027.81
2019-02-24T08:59:14.805Z,1027.79
2019-02-24T09:00:20.329Z,1027.81
2019-02-24T09:01:25.823Z,1027.82
2019-02-24T09:02:31.329Z,1027.81
2019-02-24T09:03:36.852Z,1027.84
2019-02-24T09:04:42.348Z,1027.81
2019-02-24T09:05:47.848Z,1027.85
2019-02-24T09:06:53.398Z,1027.85
2019-02-24T09:07:58.872Z,1027.88
2019-02-24T09:09:04.376Z,1027.82
2019-02-24T09:10:09.883Z,1027.90
2019-02-24T09:11:15.401Z,1027.87
2019-02-24T09:12:20.898Z,1027.88
2019-02-24T09:13:26.405Z,1027.91
2019-02-24T09:14:31.911Z,1027.93
2019-02-24T09:15:37.433Z,1027.93
2019-02-24T09:16:42.933Z,1027.91
2019-02-24T09:17:48.441Z,1027.89
2019-02-24T09:18:53.954Z,1027.89
2019-02-24T09:19:59.457Z,1027.89
2019-02-24T09:21:04.959Z,1027.90
2019-02-24T09:22:12.405Z,1027.89
2019-02-24T09:23:15.981Z,1027.90
2019-02-24T09:24:21.489Z,1027.92
2019-02-24T09:25:26.999Z,1027.92
2019-02-24T09:26:32.513Z,1027.93
2019-02-24T09:27:38.022Z,1027.91
2019-02-24T09:28:43.530Z,1027.87
2019-02-24T09:29:49.032Z,1027.83
2019-02-24T09:31:00.878Z,1027.83
2019-02-24T09:32:00.047Z,1027.80
2019-02-24T09:33:05.558Z,1027.76
2019-02-24T09:34:11.071Z,1027.80
2019-02-24T09:35:16.584Z,1027.82
2019-02-24T09:36:22.086Z,1027.80
2019-02-24T09:37:27.599Z,1027.79
2019-02-24T09:38:33.106Z,1027.81
2019-02-24T09:39:38.615Z,1027.83
2019-02-24T09:40:44.122Z,1027.84
2019-02-24T09:41:49.622Z,1027.84
2019-02-24T09:42:55.142Z,1027.90
2019-02-24T09:44:00.653Z,1027.89
2019-02-24T09:45:06.162Z,1027.89
2019-02-24T09:46:11.667Z,1027.93
2019-02-24T09:47:17.181Z,1027.92
2019-02-24T09:48:22.685Z,1027.96
2019-02-24T09:49:28.198Z,1027.95
2019-02-24T09:50:33.714Z,1027.98
2019-02-24T09:51:39.213Z,1027.99
2019-02-24T09:52:44.727Z,1027.97
2019-02-24T09:53:50.231Z,1028.03
2019-02-24T09:54:55.743Z,1028.00
2019-02-24T09:56:01.252Z,1028.04
2019-02-24T09:57:06.764Z,1028.03
2019-02-24T09:58:12.274Z,1028.02
2019-02-24T09:59:17.791Z,1028.06
2019-02-24T10:00:23.294Z,1028.01
2019-02-24T10:01:28.805Z,1028.01
2019-02-24T10:02:34.319Z,1027.99
2019-02-24T10:03:39.839Z,1028.05
2019-02-24T10:04:45.333Z,1028.08
2019-02-24T10:05:50.845Z,1028.03
2019-02-24T10:06:56.356Z,1028.02
2019-02-24T10:08:01.884Z,1028.05
2019-02-24T10:09:07.375Z,1028.10
2019-02-24T10:10:12.885Z,1028.12
2019-02-24T10:11:18.393Z,1028.13
2019-02-24T10:12:23.910Z,1028.12
2019-02-24T10:13:29.412Z,1028.14
2019-02-24T10:14:34.917Z,1028.10
2019-02-24T10:15:40.440Z,1028.10
2019-02-24T10:16:45.952Z,1028.05
2019-02-24T10:17:51.462Z,1028.09
2019-02-24T10:18:56.968Z,1028.07
2019-02-24T10:20:02.479Z,1028.06
2019-02-24T10:21:07.985Z,1028.12
2019-02-24T10:22:13.496Z,1028.12
2019-02-24T10:23:19.005Z,1028.11
2019-02-24T10:24:24.524Z,1028.12
2019-02-24T10:25:30.039Z,1028.14
2019-02-24T10:26:35.536Z,1028.16
2019-02-24T10:27:41.043Z,1028.19
2019-02-24T10:28:47.778Z,1028.18
2019-02-24T10:29:52.067Z,1028.19
2019-02-24T10:30:57.573Z,1028.15
2019-02-24T10:32:03.100Z,1028.14
2019-02-24T10:33:08.608Z,1028.14
2019-02-24T10:34:14.108Z,1028.12
2019-02-24T10:35:19.620Z,1028.09
2019-02-24T10:36:25.130Z,1028.11
2019-02-24T10:37:30.644Z,1028.03
2019-02-24T10:38:36.153Z,1028.02
2019-02-24T10:39:41.665Z,1027.97
2019-02-24T10:40:47.173Z,1028.00
2019-02-24T10:41:53.722Z,1027.99
2019-02-24T10:42:58.194Z,1028.04
2019-02-24T10:44:03.708Z,1028.02
2019-02-24T10:45:09.216Z,1028.04
2019-02-24T10:46:14.728Z,1028.02
2019-02-24T10:47:20.281Z,1028.01
2019-02-24T10:48:25.750Z,1028.00
2019-02-24T10:49:31.256Z,1027.97
2019-02-24T10:50:36.797Z,1027.97
2019-02-24T10:51:42.286Z,1027.97
2019-02-24T10:52:47.796Z,1027.96
2019-02-24T10:53:53.300Z,1027.95
2019-02-24T10:54:58.818Z,1027.95
2019-02-24T10:56:04.329Z,1027.95
2019-02-24T10:57:12.896Z,1027.99
2019-02-24T10:58:15.351Z,1027.97
2019-02-24T10:59:20.863Z,1027.99
2019-02-24T11:00:26.376Z,1027.98
2019-02-24T11:01:31.883Z,1027.97
2019-02-24T11:02:37.393Z,1027.95
2019-02-24T11:03:42.905Z,1027.95
2019-02-24T11:04:49.013Z,1027.91
2019-02-24T11:05:53.927Z,1027.89
2019-02-24T11:06:59.440Z,1027.87
2019-02-24T11:08:04.950Z,1027.84
2019-02-24T11:09:10.466Z,1027.83
2019-02-24T11:10:15.973Z,1027.81
2019-02-24T11:11:21.486Z,1027.82
2019-02-24T11:12:26.997Z,1027.82
2019-02-24T11:13:32.516Z,1027.79
2019-02-24T11:14:38.018Z,1027.76
2019-02-24T11:15:43.533Z,1027.72
2019-02-24T11:16:49.051Z,1027.74
2019-02-24T11:17:54.554Z,1027.74
2019-02-24T11:19:00.066Z,1027.77
2019-02-24T11:20:05.580Z,1027.73
2019-02-24T11:21:11.091Z,1027.72
2019-02-24T11:22:16.600Z,1027.70
2019-02-24T11:23:22.114Z,1027.75
2019-02-24T11:24:27.628Z,1027.74
2019-02-24T11:25:33.152Z,1027.78
2019-02-24T11:26:38.644Z,1027.78
2019-02-24T11:27:44.166Z,1027.72
2019-02-24T11:28:49.687Z,1027.74
2019-02-24T11:29:55.189Z,1027.70
2019-02-24T11:31:00.701Z,1027.69
2019-02-24T11:32:06.217Z,1027.69
2019-02-24T11:33:11.725Z,1027.74
2019-02-24T11:34:17.236Z,1027.77
2019-02-24T11:35:22.758Z,1027.76
2019-02-24T11:36:28.262Z,1027.80
2019-02-24T11:37:33.780Z,1027.86
2019-02-24T11:38:39.299Z,1027.82
2019-02-24T11:39:44.800Z,1027.85
2019-02-24T11:40:50.326Z,1027.84
2019-02-24T11:41:55.851Z,1027.88
2019-02-24T11:43:01.338Z,1027.86
2019-02-24T11:44:06.856Z,1027.90
2019-02-24T11:45:12.369Z,1027.92
2019-02-24T11:46:17.889Z,1027.91
2019-02-24T11:47:23.388Z,1027.91
2019-02-24T11:48:28.901Z,1027.91
2019-02-24T11:49:34.421Z,1027.84
2019-02-24T11:50:39.984Z,1027.83
2019-02-24T11:51:45.432Z,1027.82
2019-02-24T11:52:51.001Z,1027.80
2019-02-24T11:53:56.473Z,1027.79
2019-02-24T11:55:01.974Z,1027.80
2019-02-24T11:56:07.505Z,1027.83
2019-02-24T11:57:13.004Z,1027.83
2019-02-24T11:58:18.541Z,1027.83
2019-02-24T11:59:24.029Z,1027.84
2019-02-24T12:00:29.539Z,1027.79
2019-02-24T12:01:35.060Z,1027.82
2019-02-24T12:02:41.830Z,1027.80
2019-02-24T12:03:46.080Z,1027.75
2019-02-24T12:04:51.610Z,1027.74
2019-02-24T12:05:57.115Z,1027.74
2019-02-24T12:07:02.620Z,1027.72
2019-02-24T12:08:08.137Z,1027.71
2019-02-24T12:09:13.653Z,1027.70
2019-02-24T12:10:19.168Z,1027.69
2019-02-24T12:11:24.679Z,1027.66
2019-02-24T12:12:30.198Z,1027.66
2019-02-24T12:13:35.710Z,1027.63
2019-02-24T12:14:41.216Z,1027.63
2019-02-24T12:15:46.729Z,1027.66
2019-02-24T12:16:52.250Z,1027.65
2019-02-24T12:17:57.756Z,1027.62
2019-02-24T12:19:03.271Z,1027.61
2019-02-24T12:20:08.788Z,1027.64
2019-02-24T12:21:14.308Z,1027.60
2019-02-24T12:22:19.808Z,1027.59
2019-02-24T12:23:25.342Z,1027.61
2019-02-24T12:24:30.841Z,1027.59
2019-02-24T12:25:36.399Z,1027.63
2019-02-24T12:26:41.871Z,1027.60
2019-02-24T12:27:47.382Z,1027.61
2019-02-24T12:28:52.894Z,1027.62
2019-02-24T12:29:58.432Z,1027.62
2019-02-24T12:31:03.917Z,1027.60
2019-02-24T12:32:09.433Z,1027.62
2019-02-24T12:33:14.953Z,1027.64
2019-02-24T12:34:20.466Z,1027.64
2019-02-24T12:35:25.977Z,1027.60
2019-02-24T12:36:31.487Z,1027.61
2019-02-24T12:37:37.003Z,1027.62
2019-02-24T12:38:42.519Z,1027.63
2019-02-24T12:39:48.032Z,1027.63
2019-02-24T12:40:53.549Z,1027.62
2019-02-24T12:41:59.064Z,1027.65
2019-02-24T12:43:04.575Z,1027.65
2019-02-24T12:44:10.089Z,1027.71
2019-02-24T12:45:15.620Z,1027.67
2019-02-24T12:46:21.129Z,1027.68
2019-02-24T12:47:26.641Z,1027.61
2019-02-24T12:48:32.156Z,1027.61
2019-02-24T12:49:37.675Z,1027.63
2019-02-24T12:50:43.188Z,1027.66
2019-02-24T12:51:48.706Z,1027.68
2019-02-24T12:52:54.214Z,1027.64
2019-02-24T12:53:59.752Z,1027.61
2019-02-24T12:55:05.264Z,1027.67
2019-02-24T12:56:10.785Z,1027.58
2019-02-24T12:57:16.313Z,1027.57
2019-02-24T12:58:21.849Z,1027.61
2019-02-24T12:59:27.348Z,1027.56
2019-02-24T13:00:32.871Z,1027.54
2019-02-24T13:01:38.394Z,1027.51
2019-02-24T13:02:43.923Z,1027.50
2019-02-24T13:03:49.438Z,1027.48
2019-02-24T13:04:54.969Z,1027.48
2019-02-24T13:06:00.486Z,1027.52
2019-02-24T13:07:06.028Z,1027.55
2019-02-24T13:08:11.545Z,1027.49
2019-02-24T13:09:17.062Z,1027.48
2019-02-24T13:10:22.589Z,1027.48
2019-02-24T13:11:28.111Z,1027.50
2019-02-24T13:12:33.639Z,1027.48